Time;durP1;ratioP1;P1;durP2;ratioP2;P2;SDS_P1;SDS_P2;PMS_P1;PMS_P2;Temp;Humidity;BMP_temperature;BMP_pressure;BME280_temperature;BME280_humidity;BME280_pressure;Samples;Min_cycle;Max_cycle;Signal;HPM_P1;HPM_P2
2023/10/28 00:01:03;;;;;;;7.70;1.40;;;;;;;;;;5049761;28;20120;-69
2023/10/28 00:03:36;;;;;;;8.60;1.50;;;;;;;;;;5030721;28;20189;-74
2023/10/28 00:06:03;;;;;;;4.30;1.52;;;;;;;;;;5046650;28;20117;-71
2023/10/28 00:08:30;;;;;;;7.03;1.63;;;;;;;;;;5034189;28;20381;-72
2023/10/28 00:11:02;;;;;;;6.78;1.60;;;;;;;;;;5043673;28;20116;-70
2023/10/28 00:13:30;;;;;;;6.78;1.42;;;;;;;;;;5041628;28;20079;-71
2023/10/28 00:15:58;;;;;;;4.78;1.50;;;;;;;;;;5056049;28;20049;-70
2023/10/28 00:18:24;;;;;;;6.32;1.35;;;;;;;;;;5044345;28;20087;-72
2023/10/28 00:20:51;;;;;;;7.60;1.45;;;;;;;;;;5038169;28;20053;-71
2023/10/28 00:23:18;;;;;;;5.93;1.52;;;;;;;;;;5039839;28;20097;-71
2023/10/28 00:25:47;;;;;;;5.18;1.60;;;;;;;;;;5039803;28;20274;-74
2023/10/28 00:28:13;;;;;;;5.53;1.42;;;;;;;;;;5045838;28;20134;-72
2023/10/28 00:30:42;;;;;;;2.72;1.20;;;;;;;;;;5041928;28;20179;-72
2023/10/28 00:33:08;;;;;;;5.18;1.52;;;;;;;;;;5038339;28;20060;-76
2023/10/28 00:35:36;;;;;;;8.57;1.55;;;;;;;;;;5039252;28;20044;-72
2023/10/28 00:38:02;;;;;;;6.65;1.30;;;;;;;;;;5055308;28;20056;-73
2023/10/28 00:40:30;;;;;;;5.07;1.58;;;;;;;;;;5035977;28;20052;-73
2023/10/28 00:42:59;;;;;;;7.65;1.42;;;;;;;;;;5016135;28;20049;-74
2023/10/28 00:45:27;;;;;;;7.68;1.65;;;;;;;;;;5036879;28;20049;-73
2023/10/28 00:47:56;;;;;;;9.02;1.58;;;;;;;;;;5045895;28;20045;-72
2023/10/28 00:50:24;;;;;;;5.75;1.70;;;;;;;;;;5037864;28;20053;-74
2023/10/28 00:52:55;;;;;;;8.43;1.65;;;;;;;;;;5055146;28;20087;-71
2023/10/28 00:55:23;;;;;;;9.15;1.95;;;;;;;;;;5041857;28;20048;-72
2023/10/28 00:57:51;;;;;;;6.30;1.83;;;;;;;;;;5041650;28;20067;-72
2023/10/28 01:00:23;;;;;;;7.85;1.60;;;;;;;;;;5034426;28;20049;-73
2023/10/28 01:02:49;;;;;;;5.00;1.52;;;;;;;;;;5046979;28;20080;-73
2023/10/28 01:05:16;;;;;;;6.22;1.40;;;;;;;;;;5028625;28;20095;-74
2023/10/28 01:07:46;;;;;;;5.45;1.30;;;;;;;;;;5041615;28;20139;-73
2023/10/28 01:10:31;;;;;;;4.95;1.40;;;;;;;;;;5042195;28;20480;-72
2023/10/28 01:13:00;;;;;;;9.90;1.88;;;;;;;;;;5029418;28;20065;-73
2023/10/28 01:15:27;;;;;;;4.65;1.30;;;;;;;;;;5033997;28;20139;-71
2023/10/28 01:17:53;;;;;;;5.05;1.50;;;;;;;;;;5037867;28;20160;-72
2023/10/28 01:20:21;;;;;;;6.93;1.75;;;;;;;;;;5041156;28;20057;-72
2023/10/28 01:22:48;;;;;;;6.88;1.30;;;;;;;;;;5044385;28;20037;-72
2023/10/28 01:25:16;;;;;;;7.50;1.60;;;;;;;;;;5037090;28;20389;-74
2023/10/28 01:27:45;;;;;;;5.75;1.30;;;;;;;;;;5044454;28;20084;-72
2023/10/28 01:30:16;;;;;;;5.53;1.30;;;;;;;;;;5041340;28;20052;-72
2023/10/28 01:32:45;;;;;;;8.38;2.17;;;;;;;;;;5032028;28;20120;-72
2023/10/28 01:35:13;;;;;;;6.93;1.92;;;;;;;;;;5049285;28;20052;-72
2023/10/28 01:38:18;;;;;;;8.10;1.67;;;;;;;;;;5033928;28;20050;-72
2023/10/28 01:41:59;;;;;;;8.50;1.50;;;;;;;;;;5041251;28;20098;-70
2023/10/28 01:45:41;;;;;;;5.57;1.38;;;;;;;;;;5044840;28;20073;-71
2023/10/28 01:49:21;;;;;;;5.88;1.50;;;;;;;;;;5037933;28;20049;-72
2023/10/28 01:53:03;;;;;;;7.25;1.15;;;;;;;;;;5046669;28;20124;-71
2023/10/28 01:56:43;;;;;;;7.07;1.60;;;;;;;;;;5044322;28;20052;-71
2023/10/28 02:00:26;;;;;;;7.13;1.40;;;;;;;;;;5043021;28;20515;-71
2023/10/28 02:04:06;;;;;;;6.40;1.98;;;;;;;;;;5041127;28;20055;-73
2023/10/28 02:07:45;;;;;;;6.35;1.35;;;;;;;;;;5034756;28;20114;-72
2023/10/28 02:11:25;;;;;;;6.97;1.58;;;;;;;;;;5045362;28;20044;-72
2023/10/28 02:15:05;;;;;;;3.72;1.20;;;;;;;;;;5039239;28;20342;-71
2023/10/28 02:18:47;;;;;;;6.10;1.42;;;;;;;;;;5043455;28;20259;-71
2023/10/28 02:22:26;;;;;;;7.22;1.38;;;;;;;;;;5047039;28;20045;-72
2023/10/28 02:26:08;;;;;;;7.20;1.40;;;;;;;;;;5046074;28;20055;-73
2023/10/28 02:29:48;;;;;;;6.30;1.30;;;;;;;;;;5037268;28;20041;-70
2023/10/28 02:33:29;;;;;;;4.30;1.08;;;;;;;;;;5035840;28;20045;-70
2023/10/28 02:37:10;;;;;;;7.47;1.40;;;;;;;;;;5043821;28;20060;-71
2023/10/28 02:40:50;;;;;;;7.75;1.20;;;;;;;;;;5038419;28;20060;-71
2023/10/28 02:44:30;;;;;;;9.50;1.73;;;;;;;;;;5038056;28;20079;-73
2023/10/28 02:48:10;;;;;;;6.35;1.52;;;;;;;;;;5043887;28;20429;-72
2023/10/28 02:51:52;;;;;;;6.45;1.38;;;;;;;;;;5044767;28;20068;-71
2023/10/28 02:55:32;;;;;;;3.75;1.30;;;;;;;;;;5040664;28;20037;-72
2023/10/28 02:59:14;;;;;;;9.55;1.30;;;;;;;;;;5039653;28;20124;-72
2023/10/28 03:02:55;;;;;;;5.15;1.40;;;;;;;;;;5034008;28;20489;-71
2023/10/28 03:06:35;;;;;;;6.32;1.45;;;;;;;;;;5042066;28;20052;-71
2023/10/28 03:10:18;;;;;;;7.47;1.65;;;;;;;;;;5035389;28;20063;-73
2023/10/28 03:14:00;;;;;;;8.88;1.60;;;;;;;;;;5028888;28;20064;-70
2023/10/28 03:17:40;;;;;;;9.40;1.70;;;;;;;;;;5035098;28;20598;-72
2023/10/28 03:21:21;;;;;;;5.22;1.27;;;;;;;;;;5039257;28;20417;-70
2023/10/28 03:25:03;;;;;;;6.72;2.08;;;;;;;;;;5039659;28;20041;-72
2023/10/28 03:28:41;;;;;;;10.48;1.40;;;;;;;;;;5043013;28;20037;-72
2023/10/28 03:32:23;;;;;;;6.35;1.25;;;;;;;;;;5036709;28;20457;-72
2023/10/28 03:36:04;;;;;;;3.55;1.23;;;;;;;;;;5039626;28;20040;-72
2023/10/28 03:39:46;;;;;;;7.75;1.25;;;;;;;;;;5037029;28;20046;-70
2023/10/28 03:43:28;;;;;;;5.07;1.30;;;;;;;;;;5035986;28;20501;-71
2023/10/28 03:47:08;;;;;;;4.88;1.20;;;;;;;;;;5041559;28;20049;-72
2023/10/28 03:50:49;;;;;;;7.10;1.30;;;;;;;;;;5039938;28;20043;-73
2023/10/28 03:54:30;;;;;;;3.63;1.10;;;;;;;;;;5038629;28;20052;-72
2023/10/28 03:58:10;;;;;;;4.30;1.17;;;;;;;;;;5039867;28;20128;-72
2023/10/28 04:01:50;;;;;;;5.57;1.33;;;;;;;;;;5037231;28;20073;-70
2023/10/28 04:05:31;;;;;;;7.60;2.10;;;;;;;;;;5043825;28;20485;-72
2023/10/28 04:09:14;;;;;;;6.30;1.08;;;;;;;;;;5044624;28;20092;-72
2023/10/28 04:12:51;;;;;;;6.72;1.10;;;;;;;;;;5050951;28;20051;-71
2023/10/28 04:16:32;;;;;;;5.03;1.20;;;;;;;;;;5036167;28;20049;-72
2023/10/28 04:20:12;;;;;;;5.10;1.27;;;;;;;;;;5046603;28;20045;-72
2023/10/28 04:23:53;;;;;;;5.22;1.20;;;;;;;;;;5039955;28;20688;-71
2023/10/28 04:27:34;;;;;;;5.50;1.30;;;;;;;;;;5046651;28;20132;-71
2023/10/28 04:31:19;;;;;;;4.15;1.10;;;;;;;;;;5027792;28;20124;-74
2023/10/28 04:34:20;;;;;;;5.63;1.20;;;;;;;;;;5037808;28;20080;-72
2023/10/28 04:37:26;;;;;;;4.78;1.00;;;;;;;;;;5043299;28;20135;-71
2023/10/28 04:41:08;;;;;;;3.30;0.90;;;;;;;;;;5033920;28;20045;-71
2023/10/28 04:44:47;;;;;;;6.68;1.02;;;;;;;;;;5044425;28;20405;-74
2023/10/28 04:48:29;;;;;;;3.30;1.13;;;;;;;;;;5034623;28;20454;-71
2023/10/28 04:52:09;;;;;;;7.95;1.30;;;;;;;;;;5041131;28;20040;-72
2023/10/28 04:55:51;;;;;;;2.08;0.90;;;;;;;;;;5039607;28;20045;-72
2023/10/28 04:59:32;;;;;;;1.63;0.70;;;;;;;;;;5035052;28;20503;-71
2023/10/28 05:03:12;;;;;;;4.22;1.20;;;;;;;;;;5044106;28;20113;-71
2023/10/28 05:06:53;;;;;;;2.83;0.93;;;;;;;;;;5044086;28;20073;-71
2023/10/28 05:10:36;;;;;;;7.78;1.30;;;;;;;;;;5044059;28;20107;-72
2023/10/28 05:14:16;;;;;;;3.63;0.90;;;;;;;;;;5037270;28;20605;-71
2023/10/28 05:17:57;;;;;;;4.07;0.90;;;;;;;;;;5039510;28;20041;-70
2023/10/28 05:20:57;;;;;;;3.67;0.90;;;;;;;;;;5042916;28;20390;-72
2023/10/28 05:23:26;;;;;;;3.33;1.20;;;;;;;;;;5045633;28;20206;-73
2023/10/28 05:25:53;;;;;;;2.58;1.10;;;;;;;;;;5041859;28;20037;-70
2023/10/28 05:28:20;;;;;;;3.42;0.88;;;;;;;;;;5047577;28;20152;-72
2023/10/28 05:30:46;;;;;;;3.95;0.70;;;;;;;;;;5046765;28;20049;-70
2023/10/28 05:33:13;;;;;;;1.70;0.75;;;;;;;;;;5042429;28;20111;-72
2023/10/28 05:35:40;;;;;;;2.88;1.02;;;;;;;;;;5043948;28;20060;-73
2023/10/28 05:38:10;;;;;;;7.03;1.02;;;;;;;;;;5038974;28;20063;-71
2023/10/28 05:40:37;;;;;;;3.08;0.90;;;;;;;;;;5042401;28;20141;-71
2023/10/28 05:43:04;;;;;;;4.30;0.80;;;;;;;;;;5039049;28;20053;-72
2023/10/28 05:45:30;;;;;;;1.63;0.80;;;;;;;;;;5035280;28;20095;-72
2023/10/28 05:47:57;;;;;;;5.85;1.05;;;;;;;;;;5021735;28;20088;-71
2023/10/28 05:50:24;;;;;;;2.15;0.63;;;;;;;;;;5041299;28;20072;-72
2023/10/28 05:52:50;;;;;;;2.90;0.90;;;;;;;;;;5045279;28;20207;-72
2023/10/28 05:55:16;;;;;;;3.60;1.10;;;;;;;;;;5045522;28;20553;-72
2023/10/28 05:57:43;;;;;;;2.38;0.80;;;;;;;;;;5055263;28;20078;-71
2023/10/28 06:00:10;;;;;;;3.65;1.00;;;;;;;;;;5022599;28;20053;-72
2023/10/28 06:02:39;;;;;;;3.75;1.42;;;;;;;;;;5040969;28;20219;-71
2023/10/28 06:05:08;;;;;;;3.58;1.50;;;;;;;;;;5014893;28;20107;-73
2023/10/28 06:08:14;;;;;;;4.97;0.85;;;;;;;;;;5018079;28;20037;-72
2023/10/28 06:11:54;;;;;;;7.45;2.60;;;;;;;;;;5039672;28;20056;-71
2023/10/28 06:15:34;;;;;;;2.95;1.45;;;;;;;;;;5037799;28;20049;-71
2023/10/28 06:19:15;;;;;;;3.97;0.98;;;;;;;;;;5037860;28;20049;-73
2023/10/28 06:22:55;;;;;;;2.97;1.00;;;;;;;;;;5034641;28;20489;-71
2023/10/28 06:26:36;;;;;;;3.58;0.90;;;;;;;;;;5029519;28;20163;-75
2023/10/28 06:30:16;;;;;;;7.78;1.08;;;;;;;;;;5034071;28;20090;-71
2023/10/28 06:33:56;;;;;;;2.47;0.90;;;;;;;;;;5038335;28;20938;-72
2023/10/28 06:37:39;;;;;;;2.55;0.88;;;;;;;;;;5034303;28;20739;-72
2023/10/28 06:41:18;;;;;;;2.17;0.90;;;;;;;;;;5039569;28;20110;-72
2023/10/28 06:44:59;;;;;;;6.63;1.17;;;;;;;;;;5038726;28;20056;-71
2023/10/28 06:48:40;;;;;;;6.90;1.10;;;;;;;;;;5041021;28;20140;-73
2023/10/28 06:52:22;;;;;;;4.03;0.95;;;;;;;;;;5035886;28;20286;-74
2023/10/28 06:56:00;;;;;;;5.55;1.00;;;;;;;;;;5038798;28;20059;-72
2023/10/28 06:59:44;;;;;;;2.90;0.90;;;;;;;;;;5033725;28;20582;-72
2023/10/28 07:03:25;;;;;;;2.85;1.20;;;;;;;;;;5040184;28;20183;-71
2023/10/28 07:07:06;;;;;;;4.82;1.20;;;;;;;;;;5031406;28;20089;-73
2023/10/28 07:10:46;;;;;;;4.25;1.20;;;;;;;;;;5037127;28;20189;-74
2023/10/28 07:14:26;;;;;;;5.22;1.23;;;;;;;;;;5034353;28;20049;-73
2023/10/28 07:18:08;;;;;;;4.88;1.13;;;;;;;;;;5037926;28;20049;-72
2023/10/28 07:21:47;;;;;;;2.83;0.98;;;;;;;;;;5034647;28;20049;-69
2023/10/28 07:25:27;;;;;;;3.70;0.90;;;;;;;;;;5031992;28;20052;-71
2023/10/28 07:29:10;;;;;;;4.20;1.10;;;;;;;;;;5033232;28;20131;-73
2023/10/28 07:32:50;;;;;;;2.60;0.90;;;;;;;;;;5031947;28;20045;-72
2023/10/28 07:36:32;;;;;;;9.50;2.25;;;;;;;;;;5035179;28;21067;-68
2023/10/28 07:40:12;;;;;;;3.35;0.90;;;;;;;;;;5037166;28;20048;-70
2023/10/28 07:43:52;;;;;;;5.60;1.13;;;;;;;;;;5036887;28;20049;-71
2023/10/28 07:47:34;;;;;;;4.28;1.30;;;;;;;;;;5018651;28;20065;-70
2023/10/28 07:51:17;;;;;;;3.83;1.10;;;;;;;;;;5012765;28;20057;-70
2023/10/28 07:54:57;;;;;;;2.88;1.27;;;;;;;;;;5013664;28;20045;-71
2023/10/28 07:58:37;;;;;;;5.07;1.00;;;;;;;;;;5016323;28;20076;-68
2023/10/28 08:01:41;;;;;;;3.22;1.20;;;;;;;;;;5016795;28;20045;-70
2023/10/28 08:04:09;;;;;;;5.10;1.25;;;;;;;;;;5011234;28;20465;-72
2023/10/28 08:06:37;;;;;;;5.20;1.15;;;;;;;;;;5011256;28;20497;-70
2023/10/28 08:09:45;;;;;;;2.92;1.17;;;;;;;;;;5012165;28;20046;-71
2023/10/28 08:12:49;;;;;;;8.05;1.02;;;;;;;;;;5011239;28;20425;-72
2023/10/28 08:15:20;;;;;;;9.70;1.80;;;;;;;;;;5010524;28;20433;-73
2023/10/28 08:17:47;;;;;;;4.28;1.05;;;;;;;;;;5013259;28;20713;-72
2023/10/28 08:20:53;;;;;;;4.60;1.10;;;;;;;;;;5015698;28;20053;-70
2023/10/28 08:23:54;;;;;;;5.40;1.13;;;;;;;;;;5021812;28;20095;-73
2023/10/28 08:26:21;;;;;;;4.38;1.05;;;;;;;;;;5012716;28;20098;-71
2023/10/28 08:29:27;;;;;;;5.40;1.45;;;;;;;;;;5017170;28;20058;-70
2023/10/28 08:33:08;;;;;;;2.45;1.00;;;;;;;;;;5022462;28;20049;-70
2023/10/28 08:36:50;;;;;;;4.85;1.00;;;;;;;;;;5026318;28;20044;-72
2023/10/28 08:40:29;;;;;;;2.03;0.90;;;;;;;;;;5027487;28;20034;-71
2023/10/28 08:43:34;;;;;;;3.95;1.00;;;;;;;;;;5021340;28;20041;-70
2023/10/28 08:46:40;;;;;;;4.80;1.20;;;;;;;;;;5022653;28;20068;-72
2023/10/28 08:50:22;;;;;;;5.18;1.05;;;;;;;;;;5018366;28;20064;-74
2023/10/28 08:54:04;;;;;;;5.10;1.13;;;;;;;;;;5020544;28;20044;-71
2023/10/28 08:57:46;;;;;;;7.57;1.20;;;;;;;;;;5020414;28;20053;-72
2023/10/28 09:01:27;;;;;;;5.63;1.30;;;;;;;;;;5023422;28;20463;-68
2023/10/28 09:05:06;;;;;;;7.50;1.60;;;;;;;;;;5028117;28;20053;-74
2023/10/28 09:08:48;;;;;;;4.50;1.20;;;;;;;;;;5020278;28;20553;-70
2023/10/28 09:12:30;;;;;;;4.80;1.05;;;;;;;;;;5018765;28;20076;-70
2023/10/28 09:16:15;;;;;;;2.10;0.85;;;;;;;;;;5015678;28;20041;-73
2023/10/28 09:19:56;;;;;;;5.55;1.20;;;;;;;;;;5015626;28;20084;-61
2023/10/28 09:23:36;;;;;;;3.85;1.23;;;;;;;;;;5018449;28;20053;-70
2023/10/28 09:26:38;;;;;;;5.38;1.80;;;;;;;;;;5017898;28;20080;-73
2023/10/28 09:29:44;;;;;;;5.28;1.10;;;;;;;;;;5019454;28;20057;-66
2023/10/28 09:33:27;;;;;;;4.10;1.23;;;;;;;;;;5019838;28;20049;-67
2023/10/28 09:37:08;;;;;;;10.93;1.40;;;;;;;;;;5020843;28;20053;-68
2023/10/28 09:40:48;;;;;;;5.00;1.30;;;;;;;;;;5027487;28;20045;-68
2023/10/28 09:44:30;;;;;;;6.22;1.48;;;;;;;;;;5024376;28;20386;-69
2023/10/28 09:48:18;;;;;;;6.45;1.50;;;;;;;;;;5018751;28;20604;-70
2023/10/28 09:51:58;;;;;;;3.95;1.10;;;;;;;;;;5027138;28;20580;-67
2023/10/28 09:55:38;;;;;;;4.57;1.23;;;;;;;;;;5017391;28;20045;-66
2023/10/28 09:59:19;;;;;;;7.25;2.28;;;;;;;;;;5016243;28;20380;-70
2023/10/28 10:03:23;;;;;;;9.55;1.80;;;;;;;;;;5025570;28;20075;-66
2023/10/28 10:07:05;;;;;;;7.53;1.63;;;;;;;;;;5027151;28;20061;-75
2023/10/28 10:10:50;;;;;;;7.72;1.75;;;;;;;;;;5028471;28;20061;-64
2023/10/28 10:14:31;;;;;;;2.88;1.20;;;;;;;;;;5028119;28;20358;-79
2023/10/28 10:18:07;;;;;;;7.88;1.50;;;;;;;;;;5031968;28;21286;-76
2023/10/28 10:21:47;;;;;;;6.67;1.37;;;;;;;;;;5030601;28;20041;-76
2023/10/28 10:25:29;;;;;;;4.55;1.27;;;;;;;;;;5029833;28;20040;-79
2023/10/28 10:29:11;;;;;;;3.78;1.30;;;;;;;;;;5042862;28;20073;-78
2023/10/28 10:33:00;;;;;;;3.67;1.60;;;;;;;;;;5029909;28;20045;-76
2023/10/28 10:36:41;;;;;;;5.13;1.35;;;;;;;;;;5024305;28;20489;-75
2023/10/28 10:40:31;;;;;;;5.22;1.38;;;;;;;;;;5033057;28;20057;-77
2023/10/28 10:44:13;;;;;;;4.57;1.00;;;;;;;;;;5029806;28;20053;-75
2023/10/28 10:47:55;;;;;;;4.35;1.15;;;;;;;;;;5046010;28;20060;-76
2023/10/28 10:51:35;;;;;;;6.55;1.23;;;;;;;;;;5043533;28;20250;-74
2023/10/28 10:55:15;;;;;;;8.10;1.58;;;;;;;;;;5046624;28;20477;-75
2023/10/28 10:58:58;;;;;;;5.70;1.20;;;;;;;;;;5049195;28;20044;-75
2023/10/28 11:02:38;;;;;;;3.33;1.20;;;;;;;;;;5046358;28;20051;-75
2023/10/28 11:06:19;;;;;;;4.50;1.25;;;;;;;;;;5049113;28;20045;-78
2023/10/28 11:10:01;;;;;;;4.80;2.00;;;;;;;;;;5039335;28;20060;-76
2023/10/28 11:13:44;;;;;;;5.15;1.58;;;;;;;;;;5045959;28;20048;-78
2023/10/28 11:17:26;;;;;;;3.70;1.20;;;;;;;;;;5052497;28;20585;-78
2023/10/28 11:21:08;;;;;;;4.70;1.33;;;;;;;;;;5051419;28;20124;-77
2023/10/28 11:24:48;;;;;;;7.90;2.10;;;;;;;;;;5050434;28;20391;-76
2023/10/28 11:28:32;;;;;;;3.83;1.40;;;;;;;;;;5039459;28;20511;-75
2023/10/28 11:32:13;;;;;;;8.80;1.55;;;;;;;;;;5056605;28;20409;-76
2023/10/28 11:35:53;;;;;;;6.60;1.45;;;;;;;;;;5059872;28;20049;-79
2023/10/28 11:39:34;;;;;;;2.92;1.17;;;;;;;;;;5049904;28;20063;-78
2023/10/28 11:43:14;;;;;;;3.72;1.38;;;;;;;;;;5054278;28;20258;-75
2023/10/28 11:46:55;;;;;;;4.50;1.20;;;;;;;;;;5054000;28;20511;-73
2023/10/28 11:50:35;;;;;;;4.30;1.45;;;;;;;;;;5044744;28;20083;-77
2023/10/28 11:54:17;;;;;;;4.25;1.25;;;;;;;;;;5057514;28;20049;-77
2023/10/28 11:57:59;;;;;;;4.25;1.30;;;;;;;;;;5045330;28;20037;-75
2023/10/28 12:01:40;;;;;;;4.40;1.17;;;;;;;;;;5046425;28;20110;-77
2023/10/28 12:05:23;;;;;;;4.32;1.27;;;;;;;;;;5037068;28;20041;-76
2023/10/28 12:09:14;;;;;;;5.60;1.25;;;;;;;;;;5052530;28;20408;-78
2023/10/28 12:12:54;;;;;;;5.47;1.20;;;;;;;;;;5045971;28;20152;-76
2023/10/28 12:16:38;;;;;;;3.80;1.00;;;;;;;;;;5056961;28;20405;-78
2023/10/28 12:20:19;;;;;;;4.45;1.10;;;;;;;;;;5046075;28;20052;-75
2023/10/28 12:24:03;;;;;;;5.20;1.20;;;;;;;;;;5048030;28;20048;-77
2023/10/28 12:27:44;;;;;;;4.65;1.17;;;;;;;;;;5048337;28;20091;-76
2023/10/28 12:31:23;;;;;;;3.40;1.20;;;;;;;;;;5056206;28;20049;-76
2023/10/28 12:35:05;;;;;;;4.57;1.10;;;;;;;;;;5042973;28;20060;-79
2023/10/28 12:38:49;;;;;;;5.47;1.30;;;;;;;;;;5044016;28;20045;-78
2023/10/28 12:42:30;;;;;;;3.97;1.50;;;;;;;;;;5042022;28;20051;-76
2023/10/28 12:45:54;;;;;;;3.28;1.48;;;;;;;;;;5051677;28;20064;-75
2023/10/28 12:49:33;;;;;;;4.72;1.33;;;;;;;;;;5040355;28;20460;-75
2023/10/28 12:53:13;;;;;;;3.70;1.15;;;;;;;;;;5050084;28;20045;-80
2023/10/28 12:56:54;;;;;;;4.40;1.20;;;;;;;;;;5047507;28;20058;-78
2023/10/28 13:00:37;;;;;;;5.07;1.30;;;;;;;;;;5056376;28;20036;-75
2023/10/28 13:04:16;;;;;;;2.55;1.20;;;;;;;;;;5036396;28;20595;-77
2023/10/28 13:07:55;;;;;;;2.22;1.00;;;;;;;;;;5048338;28;20048;-75
2023/10/28 13:11:35;;;;;;;5.20;1.20;;;;;;;;;;5056472;28;20044;-75
2023/10/28 13:14:37;;;;;;;4.22;0.82;;;;;;;;;;5038514;28;20041;-77
2023/10/28 13:17:05;;;;;;;4.97;1.48;;;;;;;;;;5046748;28;20524;-81
2023/10/28 13:19:33;;;;;;;3.78;1.50;;;;;;;;;;5051869;28;20064;-75
2023/10/28 13:22:03;;;;;;;1.35;0.90;;;;;;;;;;5052513;28;20040;-75
2023/10/28 13:24:29;;;;;;;4.82;1.17;;;;;;;;;;5062418;28;20045;-72
2023/10/28 13:26:56;;;;;;;4.65;1.10;;;;;;;;;;5055663;28;20463;-76
2023/10/28 13:29:23;;;;;;;3.10;1.27;;;;;;;;;;5057725;28;20503;-74
2023/10/28 13:31:49;;;;;;;3.33;1.20;;;;;;;;;;5047056;28;20055;-73
2023/10/28 13:34:18;;;;;;;2.05;0.98;;;;;;;;;;5051794;28;20087;-73
2023/10/28 13:36:45;;;;;;;4.10;1.10;;;;;;;;;;5033489;28;20045;-76
2023/10/28 13:39:10;;;;;;;3.85;0.98;;;;;;;;;;5034337;28;20060;-77
2023/10/28 13:41:41;;;;;;;4.60;1.13;;;;;;;;;;5037659;28;20135;-77
2023/10/28 13:44:09;;;;;;;4.80;1.13;;;;;;;;;;5028103;28;20050;-78
2023/10/28 13:46:38;;;;;;;3.45;1.30;;;;;;;;;;5040977;28;20053;-77
2023/10/28 13:49:05;;;;;;;4.40;1.20;;;;;;;;;;5031627;28;20587;-78
2023/10/28 13:51:34;;;;;;;1.58;0.90;;;;;;;;;;5026313;28;20056;-75
2023/10/28 13:54:00;;;;;;;5.57;1.10;;;;;;;;;;5021471;28;20053;-78
2023/10/28 13:56:28;;;;;;;1.73;0.80;;;;;;;;;;5026761;28;20053;-74
2023/10/28 13:58:56;;;;;;;4.28;1.15;;;;;;;;;;5040903;28;20043;-77
2023/10/28 14:01:27;;;;;;;2.38;0.95;;;;;;;;;;5043828;28;20078;-77
2023/10/28 14:03:53;;;;;;;3.63;1.00;;;;;;;;;;5039644;28;20053;-77
2023/10/28 14:06:21;;;;;;;3.47;1.38;;;;;;;;;;5033067;28;20038;-77
2023/10/28 14:08:47;;;;;;;3.95;1.00;;;;;;;;;;5039964;28;20053;-79
2023/10/28 14:11:14;;;;;;;2.58;0.95;;;;;;;;;;5032043;28;20497;-77
2023/10/28 14:13:45;;;;;;;2.55;0.90;;;;;;;;;;5031109;28;20060;-74
2023/10/28 14:16:16;;;;;;;2.00;0.77;;;;;;;;;;5048033;28;20346;-74
2023/10/28 14:19:24;;;;;;;3.22;1.23;;;;;;;;;;5025888;28;20100;-79
2023/10/28 14:23:06;;;;;;;1.98;1.00;;;;;;;;;;5030399;28;20119;-81
2023/10/28 14:26:46;;;;;;;3.40;1.00;;;;;;;;;;5037751;28;20041;-77
2023/10/28 14:30:28;;;;;;;2.95;1.13;;;;;;;;;;5034240;28;20478;-74
2023/10/28 14:34:10;;;;;;;1.85;0.90;;;;;;;;;;5029566;28;20064;-78
2023/10/28 14:37:50;;;;;;;4.50;0.95;;;;;;;;;;5026811;28;20068;-77
2023/10/28 14:41:33;;;;;;;1.77;0.98;;;;;;;;;;5028436;28;20096;-78
2023/10/28 14:44:31;;;;;;;2.97;0.90;;;;;;;;;;5026704;28;20398;-75
2023/10/28 14:46:59;;;;;;;2.78;1.10;;;;;;;;;;5051163;28;20052;-79
2023/10/28 14:49:29;;;;;;;5.60;0.80;;;;;;;;;;5051182;28;20044;-77
2023/10/28 14:51:57;;;;;;;4.18;0.90;;;;;;;;;;5024303;28;20132;-80
2023/10/28 14:54:23;;;;;;;2.78;0.80;;;;;;;;;;5046122;28;20048;-77
2023/10/28 14:56:50;;;;;;;2.65;0.85;;;;;;;;;;5059359;28;20438;-79
2023/10/28 14:59:17;;;;;;;2.15;0.95;;;;;;;;;;5050099;28;20183;-74
2023/10/28 15:01:44;;;;;;;3.13;0.93;;;;;;;;;;5050492;28;20049;-76
2023/10/28 15:04:12;;;;;;;1.88;0.80;;;;;;;;;;5055285;28;20098;-77
2023/10/28 15:06:39;;;;;;;2.10;0.70;;;;;;;;;;5050428;28;20041;-77
2023/10/28 15:09:05;;;;;;;2.38;0.70;;;;;;;;;;5058005;28;20045;-76
2023/10/28 15:11:36;;;;;;;1.00;0.70;;;;;;;;;;5055514;28;20068;-78
2023/10/28 15:14:05;;;;;;;2.08;0.60;;;;;;;;;;5040633;28;20033;-75
2023/10/28 15:17:12;;;;;;;2.15;0.90;;;;;;;;;;5053022;28;20080;-78
2023/10/28 15:20:54;;;;;;;4.80;1.17;;;;;;;;;;5048712;28;20076;-75
2023/10/28 15:24:34;;;;;;;2.33;0.70;;;;;;;;;;5054291;28;20049;-79
2023/10/28 15:28:16;;;;;;;4.50;0.90;;;;;;;;;;5053951;28;20059;-76
2023/10/28 15:31:57;;;;;;;1.80;0.90;;;;;;;;;;5054613;28;20180;-77
2023/10/28 15:35:39;;;;;;;1.90;0.70;;;;;;;;;;5051859;28;20040;-74
2023/10/28 15:39:20;;;;;;;1.65;0.80;;;;;;;;;;5045729;28;20036;-77
2023/10/28 15:43:01;;;;;;;2.95;0.90;;;;;;;;;;5050970;28;20124;-78
2023/10/28 15:45:38;;;;;;;2.97;0.85;;;;;;;;;;5049006;28;20381;-77
2023/10/28 15:48:08;;;;;;;1.48;1.00;;;;;;;;;;5061333;28;20052;-78
2023/10/28 15:50:34;;;;;;;2.28;1.13;;;;;;;;;;5056010;28;20080;-75
2023/10/28 15:53:00;;;;;;;2.72;0.88;;;;;;;;;;5051129;28;20049;-78
2023/10/28 15:55:27;;;;;;;1.88;0.80;;;;;;;;;;5052978;28;20467;-78
2023/10/28 15:57:53;;;;;;;2.72;0.88;;;;;;;;;;5037197;28;20099;-75
2023/10/28 16:00:21;;;;;;;2.80;0.73;;;;;;;;;;5042613;28;20142;-78
2023/10/28 16:02:47;;;;;;;1.48;0.80;;;;;;;;;;5049009;28;20048;-76
2023/10/28 16:05:14;;;;;;;2.25;0.80;;;;;;;;;;5033947;28;20052;-76
2023/10/28 16:07:42;;;;;;;3.50;0.90;;;;;;;;;;5035821;28;20049;-74
2023/10/28 16:10:09;;;;;;;4.32;0.88;;;;;;;;;;5045503;28;20049;-77
2023/10/28 16:12:36;;;;;;;6.03;1.02;;;;;;;;;;5044209;28;20112;-77
2023/10/28 16:15:05;;;;;;;2.10;0.77;;;;;;;;;;5030448;28;20677;-82
2023/10/28 16:17:34;;;;;;;2.85;0.90;;;;;;;;;;5031059;28;20449;-76
2023/10/28 16:20:00;;;;;;;5.18;0.90;;;;;;;;;;5052395;28;20052;-76
2023/10/28 16:22:28;;;;;;;1.40;0.88;;;;;;;;;;5023932;28;20059;-78
2023/10/28 16:24:55;;;;;;;1.00;0.60;;;;;;;;;;5049458;28;20053;-78
2023/10/28 16:27:22;;;;;;;2.65;0.90;;;;;;;;;;5043676;28;20053;-77
2023/10/28 16:29:50;;;;;;;2.45;0.85;;;;;;;;;;5038361;28;20372;-80
2023/10/28 16:32:17;;;;;;;3.95;1.20;;;;;;;;;;5042752;28;20737;-76
2023/10/28 16:34:46;;;;;;;1.98;0.88;;;;;;;;;;5036633;28;20829;-76
2023/10/28 16:37:18;;;;;;;2.13;1.00;;;;;;;;;;5047562;28;20056;-77
2023/10/28 16:39:44;;;;;;;3.33;1.00;;;;;;;;;;5047262;28;20171;-75
2023/10/28 16:42:12;;;;;;;4.93;1.00;;;;;;;;;;5045194;28;20058;-76
2023/10/28 16:44:42;;;;;;;1.92;0.70;;;;;;;;;;5040675;28;20053;-75
2023/10/28 16:47:09;;;;;;;3.53;1.20;;;;;;;;;;5041311;28;20054;-76
2023/10/28 16:49:36;;;;;;;4.53;1.20;;;;;;;;;;5054136;28;20612;-77
2023/10/28 16:52:02;;;;;;;2.33;1.08;;;;;;;;;;5047654;28;20049;-80
2023/10/28 16:54:30;;;;;;;2.05;0.85;;;;;;;;;;5042495;28;20046;-77
2023/10/28 16:56:55;;;;;;;3.85;1.70;;;;;;;;;;5045473;28;20140;-76
2023/10/28 17:00:02;;;;;;;2.55;1.10;;;;;;;;;;5055323;28;20138;-75
2023/10/28 17:03:42;;;;;;;2.15;0.90;;;;;;;;;;5044491;28;20159;-74
2023/10/28 17:07:22;;;;;;;4.75;1.65;;;;;;;;;;5047432;28;20095;-75
2023/10/28 17:11:03;;;;;;;3.95;1.30;;;;;;;;;;5040601;28;20099;-73
2023/10/28 17:14:43;;;;;;;1.85;1.08;;;;;;;;;;5051780;28;20040;-75
2023/10/28 17:18:23;;;;;;;2.92;1.10;;;;;;;;;;5056983;28;20592;-74
2023/10/28 17:22:04;;;;;;;4.72;1.10;;;;;;;;;;5046321;28;20059;-76
2023/10/28 17:25:44;;;;;;;5.32;1.63;;;;;;;;;;5056512;28;20033;-75
2023/10/28 17:29:25;;;;;;;3.42;1.10;;;;;;;;;;5052690;28;20056;-75
2023/10/28 17:33:05;;;;;;;3.55;1.23;;;;;;;;;;5062266;28;20041;-74
2023/10/28 17:36:50;;;;;;;3.63;1.13;;;;;;;;;;5051850;28;20048;-77
2023/10/28 17:40:28;;;;;;;9.43;1.30;;;;;;;;;;5059224;28;20049;-75
2023/10/28 17:44:08;;;;;;;2.83;0.90;;;;;;;;;;5052182;28;20087;-78
2023/10/28 17:47:48;;;;;;;3.97;1.40;;;;;;;;;;5043137;28;20588;-77
2023/10/28 17:51:29;;;;;;;4.78;1.00;;;;;;;;;;5039861;28;20115;-75
2023/10/28 17:55:08;;;;;;;4.28;1.40;;;;;;;;;;5040402;28;20071;-76
2023/10/28 17:58:50;;;;;;;3.75;1.17;;;;;;;;;;5051238;28;20048;-77
2023/10/28 18:02:33;;;;;;;4.97;1.20;;;;;;;;;;5060554;28;20528;-76
2023/10/28 18:06:16;;;;;;;8.05;1.40;;;;;;;;;;5043836;28;20055;-75
2023/10/28 18:09:58;;;;;;;5.75;1.83;;;;;;;;;;5055305;28;20052;-75
2023/10/28 18:13:48;;;;;;;4.47;1.65;;;;;;;;;;5052564;28;20041;-74
2023/10/28 18:17:19;;;;;;;4.40;1.63;;;;;;;;;;5047185;28;20559;-73
2023/10/28 18:20:59;;;;;;;3.60;1.65;;;;;;;;;;5043240;28;20076;-74
2023/10/28 18:24:40;;;;;;;5.45;2.33;;;;;;;;;;5066041;28;20044;-73
2023/10/28 18:28:22;;;;;;;4.15;1.40;;;;;;;;;;5044411;28;20040;-72
2023/10/28 18:32:01;;;;;;;5.25;1.63;;;;;;;;;;5049328;28;20040;-74
2023/10/28 18:35:44;;;;;;;3.25;1.42;;;;;;;;;;5057158;28;20119;-68
2023/10/28 18:39:25;;;;;;;7.60;1.30;;;;;;;;;;5034248;28;20045;-71
2023/10/28 18:43:06;;;;;;;5.72;1.80;;;;;;;;;;5029536;28;20067;-76
2023/10/28 18:46:46;;;;;;;2.25;1.10;;;;;;;;;;5036207;28;20072;-77
2023/10/28 18:50:28;;;;;;;3.05;1.35;;;;;;;;;;5044960;28;20048;-78
2023/10/28 18:54:13;;;;;;;3.88;1.73;;;;;;;;;;5035926;28;20040;-76
2023/10/28 18:57:55;;;;;;;8.10;1.75;;;;;;;;;;5036702;28;20059;-76
2023/10/28 19:01:35;;;;;;;8.20;1.73;;;;;;;;;;5038379;28;20076;-79
2023/10/28 19:05:15;;;;;;;5.47;1.50;;;;;;;;;;5035411;28;20045;-78
2023/10/28 19:09:01;;;;;;;3.03;1.38;;;;;;;;;;5045707;28;20091;-79
2023/10/28 19:12:39;;;;;;;5.47;1.45;;;;;;;;;;5042944;28;20049;-79
2023/10/28 19:16:19;;;;;;;4.05;1.40;;;;;;;;;;5035735;28;20049;-78